Time;durP1;ratioP1;P1;durP2;ratioP2;P2;SDS_P1;SDS_P2;PMS_P1;PMS_P2;Temp;Humidity;BMP_temperature;BMP_pressure;BME280_temperature;BME280_humidity;BME280_pressure;Samples;Min_cycle;Max_cycle;Signal;HPM_P1;HPM_P2
2022/04/22 00:02:11;;;;;;;;;;;;;;;11.31;64.22;100942.09;5115181;28;19918;-34
2022/04/22 00:04:36;;;;;;;;;;;;;;;11.28;64.24;100939.88;5115397;28;19918;-34
2022/04/22 00:07:02;;;;;;;;;;;;;;;11.32;63.98;100940.22;5115918;28;19946;-34
2022/04/22 00:09:27;;;;;;;;;;;;;;;11.15;66.61;100934.66;5115014;28;19919;-34
2022/04/22 00:11:52;;;;;;;;;;;;;;;10.98;66.87;100934.53;5115981;28;20012;-34
2022/04/22 00:14:18;;;;;;;;;;;;;;;10.99;66.42;100932.66;5115152;28;19918;-34
2022/04/22 00:16:44;;;;;;;;;;;;;;;11.02;65.87;100932.16;5115069;28;19912;-34
2022/04/22 00:19:09;;;;;;;;;;;;;;;10.92;67.69;100932.72;5115585;27;19911;-34
2022/04/22 00:21:34;;;;;;;;;;;;;;;10.86;67.35;100938.25;5115377;28;19959;-34
2022/04/22 00:23:59;;;;;;;;;;;;;;;10.85;68.19;100926.59;5114646;28;19999;-34
2022/04/22 00:26:24;;;;;;;;;;;;;;;10.82;67.66;100927.06;5115703;28;19946;-34
2022/04/22 00:28:50;;;;;;;;;;;;;;;10.74;68.53;100922.81;5114635;28;20018;-34
2022/04/22 00:31:15;;;;;;;;;;;;;;;10.73;68.32;100928.44;5115681;28;20003;-34
2022/04/22 00:33:41;;;;;;;;;;;;;;;10.73;68.80;100920.31;5115329;28;20244;-34
2022/04/22 00:36:07;;;;;;;;;;;;;;;10.75;68.22;100910.09;5115010;28;19919;-34
2022/04/22 00:38:32;;;;;;;;;;;;;;;10.74;68.88;100922.00;5114879;28;19912;-34
2022/04/22 00:40:57;;;;;;;;;;;;;;;10.67;69.58;100930.19;5115367;28;19955;-34
2022/04/22 00:43:24;;;;;;;;;;;;;;;10.69;68.77;100924.56;5114816;28;20378;-34
2022/04/22 00:45:50;;;;;;;;;;;;;;;10.65;69.80;100917.94;5114386;28;20322;-34
2022/04/22 00:48:15;;;;;;;;;;;;;;;10.60;70.10;100918.63;5113694;28;19912;-34
2022/04/22 00:50:41;;;;;;;;;;;;;;;10.48;71.22;100915.03;5114762;28;19915;-34
2022/04/22 00:53:06;;;;;;;;;;;;;;;10.51;70.77;100914.59;5114692;28;20343;-34
2022/04/22 00:55:33;;;;;;;;;;;;;;;10.53;69.68;100909.78;5114667;28;19912;-34
2022/04/22 00:57:58;;;;;;;;;;;;;;;10.55;69.68;100908.50;5114872;28;19950;-34
2022/04/22 01:00:24;;;;;;;;;;;;;;;10.56;69.81;100912.84;5114672;28;19951;-34
2022/04/22 01:02:49;;;;;;;;;;;;;;;10.55;69.90;100911.22;5113910;28;19915;-34
2022/04/22 01:10:42;;;;;;;;;;;;;;;10.36;71.67;100898.78;5114577;28;19919;-34
2022/04/22 01:13:08;;;;;;;;;;;;;;;10.39;70.38;100902.91;5114127;27;19915;-34
2022/04/22 01:15:35;;;;;;;;;;;;;;;10.31;72.30;100899.47;5114155;28;19920;-34
2022/04/22 01:18:00;;;;;;;;;;;;;;;10.29;72.67;100896.16;5114594;28;19951;-34
2022/04/22 01:20:26;;;;;;;;;;;;;;;10.28;71.77;100889.09;5113857;28;20268;-34
2022/04/22 01:22:51;;;;;;;;;;;;;;;10.20;73.62;100893.97;5114453;28;19976;-34
2022/04/22 01:25:16;;;;;;;;;;;;;;;10.22;72.26;100886.47;5114214;28;20348;-34
2022/04/22 01:27:42;;;;;;;;;;;;;;;10.25;72.57;100886.88;5113843;28;19966;-34
2022/04/22 01:30:07;;;;;;;;;;;;;;;10.26;72.51;100885.00;5113958;28;20356;-34
2022/04/22 01:32:32;;;;;;;;;;;;;;;10.26;73.33;100882.28;5113570;28;19912;-34
2022/04/22 01:34:57;;;;;;;;;;;;;;;10.23;74.09;100886.22;5114722;28;19964;-34
2022/04/22 01:37:23;;;;;;;;;;;;;;;10.15;73.86;100874.91;5113845;28;19951;-34
2022/04/22 01:39:48;;;;;;;;;;;;;;;10.12;74.54;100876.19;5113594;28;20286;-34
2022/04/22 01:42:14;;;;;;;;;;;;;;;10.09;75.01;100882.03;5114330;28;19919;-34
2022/04/22 01:44:39;;;;;;;;;;;;;;;10.13;73.93;100879.72;5114202;28;19953;-34
2022/04/22 01:47:04;;;;;;;;;;;;;;;10.13;74.51;100868.91;5114091;28;20341;-34
2022/04/22 01:49:30;;;;;;;;;;;;;;;10.06;73.13;100863.59;5113727;28;19912;-34
2022/04/22 01:51:55;;;;;;;;;;;;;;;9.97;75.65;100867.66;5113814;28;19918;-33
2022/04/22 01:54:21;;;;;;;;;;;;;;;10.03;74.35;100875.66;5114452;28;20355;-33
2022/04/22 01:56:46;;;;;;;;;;;;;;;10.10;73.36;100875.56;5113803;28;19916;-33
2022/04/22 01:59:11;;;;;;;;;;;;;;;10.04;74.25;100874.59;5116892;28;20369;-33
2022/04/22 02:01:36;;;;;;;;;;;;;;;10.02;75.08;100878.59;5117706;28;19912;-33
2022/04/22 02:04:02;;;;;;;;;;;;;;;9.93;75.67;100879.97;5117636;28;19911;-33
2022/04/22 02:06:28;;;;;;;;;;;;;;;9.90;76.25;100872.28;5117425;28;20006;-33
2022/04/22 02:08:53;;;;;;;;;;;;;;;9.86;76.37;100880.03;5117580;28;19911;-33
2022/04/22 02:11:18;;;;;;;;;;;;;;;9.80;75.87;100879.03;5117294;28;20359;-33
2022/04/22 02:13:43;;;;;;;;;;;;;;;9.80;76.78;100878.22;5117485;28;19912;-33
2022/04/22 02:16:09;;;;;;;;;;;;;;;9.82;75.48;100872.63;5117809;28;19911;-33
2022/04/22 02:18:37;;;;;;;;;;;;;;;9.85;75.45;100878.38;5117094;28;19911;-33
2022/04/22 02:21:05;;;;;;;;;;;;;;;9.81;76.61;100877.19;5117610;28;20402;-33
2022/04/22 02:23:31;;;;;;;;;;;;;;;9.77;76.25;100876.00;5117346;28;19969;-33
2022/04/22 02:25:57;;;;;;;;;;;;;;;9.78;77.13;100878.47;5117288;28;20352;-33
2022/04/22 02:28:35;;;;;;;;;;;;;;;9.71;77.98;100882.25;5117206;28;20004;-34
2022/04/22 02:31:00;;;;;;;;;;;;;;;9.73;77.04;100874.78;5117131;28;19912;-34
2022/04/22 02:33:25;;;;;;;;;;;;;;;9.74;76.12;100871.03;5117067;28;19912;-34
2022/04/22 02:35:50;;;;;;;;;;;;;;;9.75;76.18;100869.97;5115490;28;19923;-34
2022/04/22 02:38:15;;;;;;;;;;;;;;;9.68;77.02;100870.06;5117077;28;19912;-34
2022/04/22 02:46:09;;;;;;;;;;;;;;;9.54;78.95;100863.97;5117519;28;20374;-34
2022/04/22 02:48:34;;;;;;;;;;;;;;;9.55;77.69;100868.31;5116447;28;19912;-34
2022/04/22 02:51:00;;;;;;;;;;;;;;;9.57;78.02;100860.00;5116819;28;20326;-34
2022/04/22 02:53:25;;;;;;;;;;;;;;;9.47;79.38;100855.13;5117168;28;19918;-34
2022/04/22 02:55:51;;;;;;;;;;;;;;;9.40;79.88;100853.53;5116955;28;19916;-34
2022/04/22 02:58:16;;;;;;;;;;;;;;;9.37;79.92;100849.41;5117337;28;20316;-34
2022/04/22 03:00:42;;;;;;;;;;;;;;;9.28;80.54;100851.56;5116852;28;19954;-34
2022/04/22 03:03:07;;;;;;;;;;;;;;;9.34;79.84;100843.63;5116820;28;19919;-34
2022/04/22 03:05:34;;;;;;;;;;;;;;;9.36;78.65;100842.34;5116478;28;20014;-34
2022/04/22 03:08:00;;;;;;;;;;;;;;;9.35;78.93;100843.41;5116410;28;19912;-34
2022/04/22 03:10:26;;;;;;;;;;;;;;;9.37;79.12;100844.03;5115816;27;19912;-34
2022/04/22 03:12:51;;;;;;;;;;;;;;;9.36;78.57;100841.53;5116596;28;19928;-34
2022/04/22 03:15:16;;;;;;;;;;;;;;;9.30;80.58;100840.53;5116291;28;19912;-33
2022/04/22 03:17:42;;;;;;;;;;;;;;;9.26;80.37;100845.56;5116441;28;19912;-34
2022/04/22 03:20:08;;;;;;;;;;;;;;;9.26;80.42;100845.56;5116138;28;20275;-34
2022/04/22 03:22:33;;;;;;;;;;;;;;;9.27;79.84;100843.69;5115858;27;19916;-35
2022/04/22 03:25:00;;;;;;;;;;;;;;;9.22;80.87;100846.22;5116403;28;19922;-34
2022/04/22 03:27:25;;;;;;;;;;;;;;;9.21;79.58;100848.09;5115994;28;19911;-34
2022/04/22 03:29:50;;;;;;;;;;;;;;;9.21;79.60;100844.56;5116317;28;19931;-34
2022/04/22 03:32:15;;;;;;;;;;;;;;;9.07;82.19;100843.84;5116275;27;19998;-34
2022/04/22 03:34:40;;;;;;;;;;;;;;;9.00;82.93;100841.22;5116012;28;19934;-33
2022/04/22 03:37:06;;;;;;;;;;;;;;;9.01;80.77;100845.56;5116272;28;20381;-34
2022/04/22 03:39:31;;;;;;;;;;;;;;;8.99;81.77;100846.84;5115707;28;19994;-34
2022/04/22 03:41:58;;;;;;;;;;;;;;;8.95;81.75;100846.47;5115767;28;19973;-34
2022/04/22 03:44:23;;;;;;;;;;;;;;;9.00;80.38;100843.09;5115800;28;20331;-34
2022/04/22 03:46:48;;;;;;;;;;;;;;;9.03;80.53;100834.59;5115799;28;19912;-34
2022/04/22 03:49:14;;;;;;;;;;;;;;;8.90;82.74;100832.00;5116191;28;19919;-33
2022/04/22 03:51:39;;;;;;;;;;;;;;;8.87;82.47;100830.53;5116218;28;19911;-33
2022/04/22 03:54:04;;;;;;;;;;;;;;;8.86;82.87;100828.06;5115373;28;20295;-34
2022/04/22 03:59:13;;;;;;;;;;;;;;;8.83;83.43;100828.50;5115724;28;19918;-33
2022/04/22 04:01:38;;;;;;;;;;;;;;;8.80;83.09;100827.09;5115037;28;19911;-34
2022/04/22 04:04:03;;;;;;;;;;;;;;;8.77;82.94;100828.34;5115383;27;19911;-33
2022/04/22 04:06:29;;;;;;;;;;;;;;;8.75;83.34;100824.22;5115613;28;19918;-34
2022/04/22 04:17:05;;;;;;;;;;;;;;;8.72;83.49;100825.47;5114925;28;19958;-33
2022/04/22 04:24:58;;;;;;;;;;;;;;;8.66;84.81;100822.84;5115066;28;20390;-33
2022/04/22 04:27:23;;;;;;;;;;;;;;;8.69;82.90;100825.09;5115689;28;19947;-33
2022/04/22 04:29:48;;;;;;;;;;;;;;;8.66;85.15;100826.34;5115224;28;19921;-33
2022/04/22 04:32:15;;;;;;;;;;;;;;;8.67;85.11;100827.19;5114900;28;19911;-33
2022/04/22 04:34:40;;;;;;;;;;;;;;;8.69;83.76;100822.41;5114752;28;19939;-33
2022/04/22 04:37:06;;;;;;;;;;;;;;;8.67;85.50;100816.41;5114772;28;19912;-33
2022/04/22 04:39:32;;;;;;;;;;;;;;;8.68;84.43;100820.75;5115097;28;19990;-33
2022/04/22 04:41:57;;;;;;;;;;;;;;;8.71;83.62;100817.63;5115186;28;20064;-33
2022/04/22 04:44:23;;;;;;;;;;;;;;;8.72;84.85;100817.38;5114621;28;20385;-33
2022/04/22 04:46:48;;;;;;;;;;;;;;;8.75;84.23;100818.84;5112982;28;20014;-33
2022/04/22 04:49:13;;;;;;;;;;;;;;;8.72;85.90;100819.25;5115081;28;19912;-33
2022/04/22 04:51:38;;;;;;;;;;;;;;;8.66;86.79;100814.75;5115292;28;19911;-34
2022/04/22 04:54:03;;;;;;;;;;;;;;;8.64;86.55;100823.06;5114129;28;20387;-33
2022/04/22 04:56:29;;;;;;;;;;;;;;;8.68;86.20;100818.03;5114304;28;19911;-33
2022/04/22 04:58:54;;;;;;;;;;;;;;;8.69;87.52;100820.53;5114011;28;19919;-33
2022/04/22 05:01:19;;;;;;;;;;;;;;;8.73;86.51;100818.22;5114527;28;19911;-33
2022/04/22 05:03:44;;;;;;;;;;;;;;;8.69;87.76;100825.94;5114708;28;19957;-33
2022/04/22 05:06:11;;;;;;;;;;;;;;;8.71;86.71;100817.63;5113980;28;19915;-33
2022/04/22 05:08:36;;;;;;;;;;;;;;;8.74;87.34;100819.88;5113958;28;19966;-34
2022/04/22 05:11:01;;;;;;;;;;;;;;;8.76;87.33;100823.19;5114795;28;19911;-33
2022/04/22 05:13:26;;;;;;;;;;;;;;;8.71;90.30;100823.00;5113941;28;19951;-33
2022/04/22 05:15:53;;;;;;;;;;;;;;;8.75;88.26;100824.22;5113894;28;20319;-33
2022/04/22 05:18:19;;;;;;;;;;;;;;;8.78;89.41;100826.47;5114086;28;19961;-33
2022/04/22 05:20:44;;;;;;;;;;;;;;;8.80;89.59;100826.28;5113647;28;19916;-34
2022/04/22 05:23:09;;;;;;;;;;;;;;;8.88;89.86;100825.97;5114590;28;19918;-34
2022/04/22 05:25:34;;;;;;;;;;;;;;;8.90;90.50;100830.13;5114742;28;19911;-34
2022/04/22 05:27:59;;;;;;;;;;;;;;;8.90;91.58;100827.41;5113886;28;19967;-34
2022/04/22 05:33:10;;;;;;;;;;;;;;;9.10;90.39;100819.16;5113680;28;19962;-34
2022/04/22 05:35:35;;;;;;;;;;;;;;;9.18;89.82;100818.06;5114118;28;19912;-34
2022/04/22 05:38:02;;;;;;;;;;;;;;;9.22;90.20;100830.03;5113867;28;19919;-34
2022/04/22 05:40:31;;;;;;;;;;;;;;;9.31;89.01;100814.38;5113849;28;19912;-34
2022/04/22 05:42:58;;;;;;;;;;;;;;;9.32;90.11;100814.19;5113663;28;19924;-33
2022/04/22 05:45:23;;;;;;;;;;;;;;;9.35;90.36;100820.97;5113762;28;19911;-34
2022/04/22 05:47:51;;;;;;;;;;;;;;;9.36;90.52;100825.31;5113639;28;19919;-34
2022/04/22 05:50:17;;;;;;;;;;;;;;;9.42;89.58;100819.03;5113990;28;19918;-34
2022/04/22 05:52:43;;;;;;;;;;;;;;;9.46;89.79;100823.75;5113613;28;19912;-34
2022/04/22 05:55:09;;;;;;;;;;;;;;;9.55;89.81;100829.69;5113524;28;19965;-34
2022/04/22 05:57:35;;;;;;;;;;;;;;;9.64;90.17;100827.53;5113552;28;19911;-34
2022/04/22 06:00:04;;;;;;;;;;;;;;;9.73;89.70;100836.97;5113600;28;19915;-34
2022/04/22 06:02:29;;;;;;;;;;;;;;;9.81;90.38;100828.59;5113395;28;20006;-34
2022/04/22 06:04:54;;;;;;;;;;;;;;;9.97;89.15;100835.25;5113470;28;20293;-34
2022/04/22 06:07:20;;;;;;;;;;;;;;;10.05;89.06;100833.06;5113709;28;19941;-34
2022/04/22 06:12:29;;;;;;;;;;;;;;;10.18;87.52;100815.81;5113776;28;20056;-34
2022/04/22 06:14:54;;;;;;;;;;;;;;;10.24;87.76;100817.63;5113641;28;20356;-34
2022/04/22 06:17:19;;;;;;;;;;;;;;;10.23;87.67;100821.38;5113359;28;19912;-34
2022/04/22 06:19:45;;;;;;;;;;;;;;;10.35;87.16;100826.88;5113322;28;20138;-34
2022/04/22 06:22:10;;;;;;;;;;;;;;;10.34;86.94;100827.06;5113986;28;19919;-34
2022/04/22 06:24:35;;;;;;;;;;;;;;;10.45;86.83;100816.31;5113757;28;19971;-34
2022/04/22 06:27:00;;;;;;;;;;;;;;;10.54;85.70;100817.63;5113576;28;19934;-34
2022/04/22 06:29:26;;;;;;;;;;;;;;;10.54;86.28;100820.34;5113757;28;19918;-34
2022/04/22 06:31:51;;;;;;;;;;;;;;;10.65;85.62;100807.91;5113814;28;19912;-34
2022/04/22 06:34:17;;;;;;;;;;;;;;;10.75;85.29;100812.75;5114077;28;20263;-34
2022/04/22 06:36:42;;;;;;;;;;;;;;;10.79;84.90;100813.91;5114309;28;19912;-33
2022/04/22 06:39:08;;;;;;;;;;;;;;;10.85;84.92;100823.81;5113169;28;19918;-33
2022/04/22 06:47:01;;;;;;;;;;;;;;;10.92;84.59;100813.69;5117447;28;19938;-33
2022/04/22 06:49:26;;;;;;;;;;;;;;;10.95;83.54;100815.13;5117565;28;20348;-33
2022/04/22 06:51:52;;;;;;;;;;;;;;;10.99;83.60;100819.81;5117390;27;19934;-34
2022/04/22 06:54:17;;;;;;;;;;;;;;;11.00;83.71;100812.53;5116745;28;19912;-34
2022/04/22 06:56:44;;;;;;;;;;;;;;;10.85;83.88;100821.09;5116954;28;19911;-34
2022/04/22 06:59:10;;;;;;;;;;;;;;;10.87;83.91;100816.25;5117111;28;19911;-34
2022/04/22 07:01:36;;;;;;;;;;;;;;;10.95;83.44;100815.94;5116729;28;19912;-34
2022/04/22 07:04:02;;;;;;;;;;;;;;;10.97;84.01;100812.97;5116552;28;19915;-34
2022/04/22 07:06:27;;;;;;;;;;;;;;;10.91;83.43;100822.03;5116321;28;19912;-34
2022/04/22 07:08:52;;;;;;;;;;;;;;;10.95;83.65;100818.63;5116367;28;19912;-34
2022/04/22 07:11:22;;;;;;;;;;;;;;;11.00;83.66;100816.06;5116209;27;19911;-34
2022/04/22 07:13:47;;;;;;;;;;;;;;;11.07;83.10;100822.16;5116427;28;19912;-35
2022/04/22 07:16:14;;;;;;;;;;;;;;;11.14;83.06;100811.25;5117147;28;19918;-34
2022/04/22 07:18:39;;;;;;;;;;;;;;;11.28;82.81;100818.06;5116275;28;19912;-34
2022/04/22 07:21:05;;;;;;;;;;;;;;;11.27;83.06;100815.56;5115746;28;19923;-34
2022/04/22 07:23:30;;;;;;;;;;;;;;;11.37;82.21;100804.16;5116688;27;19921;-34
2022/04/22 07:25:56;;;;;;;;;;;;;;;11.39;81.81;100802.88;5116125;27;19956;-34
2022/04/22 07:28:22;;;;;;;;;;;;;;;11.44;81.21;100805.69;5116067;27;19911;-34
2022/04/22 07:30:50;;;;;;;;;;;;;;;11.45;81.16;100796.50;5116787;28;19946;-34
2022/04/22 07:33:15;;;;;;;;;;;;;;;11.47;81.24;100794.38;5116153;28;19911;-34
2022/04/22 07:35:41;;;;;;;;;;;;;;;11.57;80.83;100794.59;5115340;28;19918;-34
2022/04/22 07:38:06;;;;;;;;;;;;;;;11.58;80.40;100790.81;5115891;28;19959;-34
2022/04/22 07:40:32;;;;;;;;;;;;;;;11.64;80.25;100793.63;5116399;28;20227;-34
2022/04/22 07:48:26;;;;;;;;;;;;;;;11.90;80.03;100793.09;5115685;28;19965;-34
2022/04/22 07:50:54;;;;;;;;;;;;;;;11.94;78.95;100790.75;5115871;28;19918;-34
2022/04/22 07:53:20;;;;;;;;;;;;;;;12.08;78.21;100787.50;5115304;28;19912;-34
2022/04/22 07:55:46;;;;;;;;;;;;;;;12.16;78.17;100789.03;5115480;28;20447;-34
2022/04/22 07:58:13;;;;;;;;;;;;;;;12.03;78.09;100792.00;5115174;28;19935;-34
2022/04/22 08:00:40;;;;;;;;;;;;;;;12.08;78.48;100782.09;5115443;28;19918;-34
2022/04/22 08:03:05;;;;;;;;;;;;;;;12.16;78.08;100790.91;5115251;28;20012;-34
2022/04/22 08:05:31;;;;;;;;;;;;;;;12.20;77.67;100792.03;5116147;28;19957;-34
2022/04/22 08:07:56;;;;;;;;;;;;;;;12.12;77.21;100785.16;5114923;28;19972;-34
2022/04/22 08:10:21;;;;;;;;;;;;;;;12.19;77.67;100780.38;5115444;28;19912;-34
2022/04/22 08:12:47;;;;;;;;;;;;;;;12.05;77.25;100784.44;5115015;28;19912;-34
2022/04/22 08:15:12;;;;;;;;;;;;;;;12.07;77.44;100783.16;5115145;28;20275;-34
2022/04/22 08:17:38;;;;;;;;;;;;;;;12.11;77.14;100778.91;5115618;28;19957;-34
2022/04/22 08:20:04;;;;;;;;;;;;;;;12.18;77.45;100777.94;5115878;28;19912;-34
2022/04/22 08:22:30;;;;;;;;;;;;;;;12.17;77.25;100789.84;5114514;27;19916;-34
2022/04/22 08:24:56;;;;;;;;;;;;;;;12.04;77.83;100783.63;5114675;28;19912;-34
2022/04/22 08:27:22;;;;;;;;;;;;;;;12.01;77.37;100773.28;5115163;28;19923;-34
2022/04/22 08:29:47;;;;;;;;;;;;;;;12.00;78.14;100784.34;5115581;28;19911;-34
2022/04/22 08:32:13;;;;;;;;;;;;;;;12.08;77.77;100770.44;5114836;28;19912;-34
2022/04/22 08:34:38;;;;;;;;;;;;;;;12.17;77.44;100768.97;5114978;28;20308;-34
2022/04/22 08:37:03;;;;;;;;;;;;;;;12.27;77.25;100777.28;5115000;28;19951;-34
2022/04/22 08:39:29;;;;;;;;;;;;;;;12.33;76.96;100762.75;5114617;28;19919;-34
2022/04/22 08:41:55;;;;;;;;;;;;;;;12.29;76.64;100771.63;5114849;28;20370;-34
2022/04/22 08:44:21;;;;;;;;;;;;;;;12.32;76.77;100779.28;5115104;28;19915;-34
2022/04/22 08:52:15;;;;;;;;;;;;;;;12.71;75.15;100760.41;5114218;28;20369;-34
2022/04/22 08:54:43;;;;;;;;;;;;;;;12.76;74.76;100758.59;5114786;27;19915;-34
2022/04/22 08:57:09;;;;;;;;;;;;;;;12.59;75.84;100758.59;5114650;28;19965;-34
2022/04/22 08:59:34;;;;;;;;;;;;;;;12.78;74.80;100744.75;5114027;28;19912;-34
2022/04/22 09:01:59;;;;;;;;;;;;;;;13.06;74.22;100749.25;5114537;28;19919;-34
2022/04/22 09:04:26;;;;;;;;;;;;;;;13.36;72.74;100752.41;5113918;28;19912;-34
2022/04/22 09:06:52;;;;;;;;;;;;;;;13.62;72.96;100745.44;5114276;28;19919;-34
2022/04/22 09:09:18;;;;;;;;;;;;;;;13.97;71.03;100740.66;5113991;28;19911;-34
2022/04/22 09:11:43;;;;;;;;;;;;;;;14.12;70.12;100746.25;5113969;28;19918;-34
2022/04/22 09:14:08;;;;;;;;;;;;;;;14.30;69.47;100740.44;5112997;28;20347;-32
2022/04/22 09:16:34;;;;;;;;;;;;;;;14.37;69.85;100732.88;5113094;28;19973;-32
2022/04/22 09:19:00;;;;;;;;;;;;;;;14.53;67.50;100733.03;5114531;28;19912;-34
2022/04/22 09:21:26;;;;;;;;;;;;;;;14.58;66.18;100727.63;5114539;28;19923;-34
2022/04/22 09:23:53;;;;;;;;;;;;;;;14.49;65.16;100723.72;5113867;28;19912;-35
2022/04/22 09:26:22;;;;;;;;;;;;;;;14.37;66.59;100729.34;5114227;28;19912;-35
2022/04/22 09:29:05;;;;;;;;;;;;;;;14.14;67.13;100723.13;5113848;28;20010;-34
2022/04/22 09:31:43;;;;;;;;;;;;;;;14.22;67.69;100718.31;5114238;28;19912;-34
2022/04/22 09:34:08;;;;;;;;;;;;;;;14.16;67.00;100717.47;5114679;28;19918;-34
2022/04/22 09:44:49;;;;;;;;;;;;;;;14.05;65.61;100708.34;5114149;28;19957;-34
2022/04/22 09:47:15;;;;;;;;;;;;;;;14.08;66.03;100702.41;5114348;28;19915;-34
2022/04/22 09:49:43;;;;;;;;;;;;;;;14.06;66.27;100703.78;5114316;28;19915;-34
2022/04/22 09:52:08;;;;;;;;;;;;;;;14.14;65.56;100695.94;5114538;28;20010;-34
2022/04/22 09:54:33;;;;;;;;;;;;;;;14.16;65.41;100693.81;5113685;28;20351;-35
2022/04/22 09:57:00;;;;;;;;;;;;;;;14.08;64.75;100691.53;5113979;28;19998;-34
2022/04/22 09:59:30;;;;;;;;;;;;;;;14.01;64.91;100687.41;5113906;28;19916;-35
2022/04/22 10:01:55;;;;;;;;;;;;;;;14.22;64.68;100686.50;5113653;28;19919;-35
2022/04/22 10:04:21;;;;;;;;;;;;;;;14.33;63.60;100685.50;5113691;28;19912;-34
2022/04/22 10:06:47;;;;;;;;;;;;;;;14.06;63.47;100679.28;5113711;28;19912;-34
2022/04/22 10:09:15;;;;;;;;;;;;;;;14.07;62.97;100672.78;5113578;28;20275;-34
2022/04/22 10:11:41;;;;;;;;;;;;;;;14.24;63.45;100684.31;5113832;28;19953;-34
2022/04/22 10:14:09;;;;;;;;;;;;;;;14.47;62.46;100679.63;5113441;28;19955;-35
2022/04/22 10:16:34;;;;;;;;;;;;;;;14.45;61.62;100677.19;5113984;28;20276;-34
2022/04/22 10:19:01;;;;;;;;;;;;;;;14.29;61.11;100676.22;5113784;28;19915;-34
2022/04/22 10:21:26;;;;;;;;;;;;;;;14.43;60.02;100679.31;5116818;28;19923;-39
2022/04/22 10:23:52;;;;;;;;;;;;;;;14.53;60.20;100667.72;5117923;28;19911;-34
2022/04/22 10:26:18;;;;;;;;;;;;;;;14.52;60.15;100658.75;5117293;27;19934;-34
2022/04/22 10:28:45;;;;;;;;;;;;;;;14.67;61.39;100666.19;5117150;28;19912;-34
2022/04/22 10:31:11;;;;;;;;;;;;;;;14.92;60.86;100660.06;5116876;28;19916;-34
2022/04/22 10:33:41;;;;;;;;;;;;;;;14.65;59.35;100671.91;5117652;28;19918;-34
2022/04/22 10:36:06;;;;;;;;;;;;;;;14.33;59.95;100654.75;5117127;27;19912;-34
2022/04/22 10:38:37;;;;;;;;;;;;;;;14.42;61.25;100655.91;5117410;28;19911;-34
2022/04/22 10:41:05;;;;;;;;;;;;;;;14.37;60.87;100664.03;5116690;27;20341;-33
2022/04/22 10:43:31;;;;;;;;;;;;;;;14.47;61.96;100664.13;5115492;28;19938;-34
2022/04/22 10:48:41;;;;;;;;;;;;;;;14.20;62.25;100663.34;5116788;28;20405;-34
2022/04/22 10:51:09;;;;;;;;;;;;;;;14.13;61.66;100658.13;5117066;28;20313;-35
2022/04/22 10:53:47;;;;;;;;;;;;;;;13.97;61.80;100664.53;5115691;28;19960;-34
2022/04/22 10:56:32;;;;;;;;;;;;;;;13.95;62.30;100656.59;5116751;28;19916;-34
2022/04/22 10:59:16;;;;;;;;;;;;;;;13.99;62.28;100660.47;5117503;28;19955;-34
2022/04/22 11:01:42;;;;;;;;;;;;;;;14.06;62.06;100671.13;5116726;28;20431;-35
2022/04/22 11:04:20;;;;;;;;;;;;;;;13.98;63.56;100652.56;5116873;28;19911;-34
2022/04/22 11:06:46;;;;;;;;;;;;;;;13.84;64.13;100665.75;5116551;28;19923;-34
2022/04/22 11:09:22;;;;;;;;;;;;;;;13.88;63.98;100664.97;5117188;28;19911;-34
2022/04/22 11:11:48;;;;;;;;;;;;;;;13.85;64.51;100659.22;5116935;28;20249;-34
2022/04/22 11:14:18;;;;;;;;;;;;;;;13.75;65.00;100661.84;5116656;28;19964;-34
2022/04/22 11:16:43;;;;;;;;;;;;;;;13.70;64.96;100656.38;5116907;27;19965;-34
2022/04/22 11:19:11;;;;;;;;;;;;;;;13.71;65.35;100649.84;5115041;28;19912;-35
2022/04/22 11:21:37;;;;;;;;;;;;;;;13.76;65.60;100649.91;5116690;28;19916;-34
2022/04/22 11:24:14;;;;;;;;;;;;;;;13.76;65.47;100652.63;5116718;28;19915;-34
2022/04/22 11:26:39;;;;;;;;;;;;;;;13.87;65.46;100640.78;5115847;28;19923;-34
2022/04/22 11:29:08;;;;;;;;;;;;;;;13.86;64.87;100652.75;5116145;27;20049;-34
2022/04/22 11:31:34;;;;;;;;;;;;;;;13.88;65.21;100645.13;5116673;28;19912;-35
2022/04/22 11:34:05;;;;;;;;;;;;;;;13.86;65.09;100650.03;5115754;28;19919;-34
2022/04/22 11:36:41;;;;;;;;;;;;;;;13.90;64.81;100645.69;5116283;28;19922;-34
2022/04/22 11:39:06;;;;;;;;;;;;;;;13.95;64.59;100640.28;5116257;28;19972;-34
2022/04/22 11:41:31;;;;;;;;;;;;;;;13.95;64.41;100640.28;5116058;28;20363;-34
2022/04/22 11:43:57;;;;;;;;;;;;;;;13.93;64.30;100642.47;5115540;28;20314;-34
2022/04/22 11:46:22;;;;;;;;;;;;;;;13.99;64.40;100640.63;5115827;28;19911;-35
2022/04/22 11:48:53;;;;;;;;;;;;;;;14.06;65.30;100638.50;5115743;28;19919;-34
2022/04/22 11:51:19;;;;;;;;;;;;;;;14.12;64.65;100640.19;5116012;28;19955;-34
2022/04/22 11:53:53;;;;;;;;;;;;;;;14.09;63.67;100636.06;5115559;28;20367;-34
2022/04/22 11:56:19;;;;;;;;;;;;;;;14.23;63.54;100628.31;5116091;28;20031;-34
2022/04/22 11:58:44;;;;;;;;;;;;;;;14.30;63.34;100628.06;5115426;28;19911;-34
2022/04/22 12:06:38;;;;;;;;;;;;;;;14.49;61.46;100610.28;5116007;28;19966;-35
2022/04/22 12:09:05;;;;;;;;;;;;;;;14.50;61.57;100620.09;5115094;28;19916;-34
2022/04/22 12:11:37;;;;;;;;;;;;;;;14.47;60.92;100615.16;5115542;28;20369;-34
2022/04/22 12:14:03;;;;;;;;;;;;;;;14.39;61.57;100623.78;5115205;28;19911;-33
2022/04/22 12:16:28;;;;;;;;;;;;;;;14.47;61.43;100611.59;5115274;28;19930;-34
2022/04/22 12:18:54;;;;;;;;;;;;;;;14.49;61.11;100612.19;5115189;28;19911;-34
2022/04/22 12:21:20;;;;;;;;;;;;;;;14.45;60.35;100609.16;5114833;28;20284;-34
2022/04/22 12:23:46;;;;;;;;;;;;;;;14.59;60.90;100604.09;5115328;28;19923;-34
2022/04/22 12:26:19;;;;;;;;;;;;;;;14.72;61.55;100594.63;5115278;28;19951;-34
2022/04/22 12:29:08;;;;;;;;;;;;;;;14.83;59.27;100605.31;5114882;28;20005;-34
2022/04/22 12:31:36;;;;;;;;;;;;;;;14.75;59.57;100607.72;5115395;28;19998;-34
2022/04/22 12:34:03;;;;;;;;;;;;;;;14.73;59.17;100609.88;5115312;28;19911;-34
2022/04/22 12:36:28;;;;;;;;;;;;;;;14.75;58.90;100603.09;5115589;28;19916;-34
2022/04/22 12:38:54;;;;;;;;;;;;;;;14.72;58.54;100606.34;5113818;28;19961;-34
2022/04/22 12:41:26;;;;;;;;;;;;;;;14.57;59.93;100607.06;5114720;28;20321;-34
2022/04/22 12:43:54;;;;;;;;;;;;;;;14.58;60.46;100600.53;5114361;28;20244;-34
2022/04/22 12:52:08;;;;;;;;;;;;;;;14.52;59.97;100577.13;5115097;28;19918;-34
2022/04/22 12:54:33;;;;;;;;;;;;;;;14.63;59.42;100578.81;5114515;27;20037;-34
2022/04/22 12:56:58;;;;;;;;;;;;;;;14.82;59.77;100581.06;5114157;28;20016;-34
2022/04/22 12:59:38;;;;;;;;;;;;;;;14.98;59.15;100569.16;5114044;28;19918;-34
2022/04/22 13:02:07;;;;;;;;;;;;;;;15.30;58.42;100563.53;5114762;28;19911;-34
2022/04/22 13:04:32;;;;;;;;;;;;;;;15.56;57.52;100561.66;5114306;28;20362;-34
2022/04/22 13:06:57;;;;;;;;;;;;;;;15.65;58.11;100564.72;5114286;28;19954;-34
2022/04/22 13:09:23;;;;;;;;;;;;;;;15.45;57.25;100560.03;5114719;28;19915;-34
2022/04/22 13:11:51;;;;;;;;;;;;;;;15.50;56.73;100554.59;5114489;28;19911;-34
2022/04/22 13:14:17;;;;;;;;;;;;;;;15.55;56.67;100561.94;5114107;28;19918;-34
2022/04/22 13:16:42;;;;;;;;;;;;;;;15.57;57.70;100563.31;5113855;27;20015;-34
2022/04/22 13:19:08;;;;;;;;;;;;;;;15.52;56.17;100560.59;5114300;28;19911;-34
2022/04/22 13:21:34;;;;;;;;;;;;;;;15.59;56.42;100555.69;5114548;28;20343;-34
2022/04/22 13:24:00;;;;;;;;;;;;;;;15.56;56.19;100556.22;5114620;28;19956;-34
2022/04/22 13:26:26;;;;;;;;;;;;;;;15.57;55.61;100552.44;5114289;28;20305;-34
2022/04/22 13:28:53;;;;;;;;;;;;;;;15.54;54.91;100563.03;5113956;28;19912;-39
2022/04/22 13:31:18;;;;;;;;;;;;;;;15.45;55.20;100544.50;5113695;28;19919;-34
2022/04/22 13:33:43;;;;;;;;;;;;;;;15.53;55.52;100548.59;5113521;28;19927;-34
2022/04/22 13:36:11;;;;;;;;;;;;;;;15.55;55.41;100546.41;5113961;28;19912;-34
2022/04/22 13:38:37;;;;;;;;;;;;;;;15.49;54.78;100547.50;5114105;28;20006;-34
2022/04/22 13:41:04;;;;;;;;;;;;;;;15.40;55.33;100551.84;5113873;28;19918;-34
2022/04/22 13:43:30;;;;;;;;;;;;;;;15.40;55.13;100540.94;5113572;28;19911;-34
2022/04/22 13:54:11;;;;;;;;;;;;;;;15.77;55.03;100534.47;5115091;28;19919;-34
2022/04/22 13:56:36;;;;;;;;;;;;;;;15.79;55.15;100535.81;5118431;28;19912;-34